ACA15B EDDF-CYYC
Flight info
| Callsign | ACA15B |
|---|---|
| Flight time | N/A |
| Altitude | 24000 |
| Route | MARUN7F MARUN Y152 ARPEG/N0463F340 Z850 ABILU DCT ATPAQ/N0468F360 DCT REXMI DCT KARLI DCT GUNPA/M082F360 DCT 65N010W 6730N02000W 6930N03000W 71N040W/M082F380 72N060W DCT INGUM/N0473F380 DCT 7130N07000W 7030N08000W 6830N09000W 65N100W 62N105W/N0478F400 DCT YMM Q856 LETRM/N0463F390 DCT IGVUX/N0468F400 Q882 BIRKO BIRKO6 |
| Aircraft | B77L/H-SDE1E2E3FGHIJ2J3J4J5M1RWXY/LB1D1 |
Departure
| Time | N/A |
|---|---|
| Airport | Frankfurt Main Airport (EDDF) |
Arrival
| Time | 2026-05-06 04:51 |
|---|---|
| Airport | Calgary International Airport (CYYC) |
| Time | Latitude | Longitude | Altitude | Speed | Heading |
|---|---|---|---|---|---|
| 2026-05-06 02:47 | 63.56015 | -102.56721 | 40322 ft | 494 kts | 218° |
| 2026-05-06 02:48 | 63.51424 | -102.64359 | 40324 ft | 495 kts | 218° |
| 2026-05-06 02:48 | 63.44977 | -102.75033 | 40323 ft | 496 kts | 218° |
| 2026-05-06 02:49 | 63.40346 | -102.82661 | 40321 ft | 497 kts | 218° |
| 2026-05-06 02:49 | 63.34768 | -102.91808 | 40323 ft | 498 kts | 218° |
| 2026-05-06 02:50 | 63.29166 | -103.00947 | 40322 ft | 500 kts | 218° |
| 2026-05-06 02:50 | 63.23530 | -103.10097 | 40312 ft | 500 kts | 218° |
| 2026-05-06 02:51 | 63.17930 | -103.19147 | 40319 ft | 501 kts | 218° |
| 2026-05-06 02:51 | 63.12284 | -103.28224 | 40319 ft | 502 kts | 218° |
| 2026-05-06 02:52 | 63.06628 | -103.37274 | 40322 ft | 502 kts | 218° |
| 2026-05-06 02:52 | 63.00956 | -103.46304 | 40317 ft | 503 kts | 217° |
| 2026-05-06 02:53 | 62.95270 | -103.55312 | 40320 ft | 502 kts | 217° |
| 2026-05-06 02:53 | 62.89632 | -103.64198 | 40306 ft | 502 kts | 217° |
| 2026-05-06 02:54 | 62.83956 | -103.73105 | 40322 ft | 502 kts | 217° |
| 2026-05-06 02:54 | 62.78277 | -103.81973 | 40315 ft | 502 kts | 217° |
| 2026-05-06 02:55 | 62.72585 | -103.90818 | 40305 ft | 502 kts | 217° |
| 2026-05-06 02:55 | 62.66882 | -103.99637 | 40298 ft | 502 kts | 217° |
| 2026-05-06 02:56 | 62.61194 | -104.08389 | 40301 ft | 500 kts | 217° |
| 2026-05-06 02:56 | 62.55520 | -104.17078 | 40306 ft | 498 kts | 217° |
| 2026-05-06 02:57 | 62.49866 | -104.25697 | 40313 ft | 496 kts | 217° |
| 2026-05-06 02:57 | 62.44214 | -104.34273 | 40306 ft | 495 kts | 217° |
| 2026-05-06 02:58 | 62.38576 | -104.42786 | 40322 ft | 494 kts | 217° |
| 2026-05-06 02:58 | 62.32970 | -104.51213 | 40309 ft | 494 kts | 217° |
| 2026-05-06 02:59 | 62.27322 | -104.59662 | 40312 ft | 494 kts | 217° |
| 2026-05-06 02:59 | 62.21671 | -104.68078 | 40287 ft | 495 kts | 217° |
| 2026-05-06 03:00 | 62.16012 | -104.76467 | 40311 ft | 495 kts | 217° |
| 2026-05-06 03:00 | 62.10327 | -104.84856 | 40316 ft | 497 kts | 217° |
| 2026-05-06 03:01 | 62.04627 | -104.93231 | 40313 ft | 498 kts | 217° |
| 2026-05-06 03:01 | 61.98934 | -105.01539 | 40305 ft | 500 kts | 216° |
| 2026-05-06 03:02 | 61.93103 | -105.09635 | 40308 ft | 501 kts | 214° |
| 2026-05-06 03:02 | 61.87214 | -105.17604 | 40304 ft | 502 kts | 214° |
| 2026-05-06 03:03 | 61.81324 | -105.25569 | 40288 ft | 502 kts | 215° |
| 2026-05-06 03:03 | 61.75437 | -105.33543 | 40300 ft | 502 kts | 215° |
| 2026-05-06 03:04 | 61.69552 | -105.41494 | 40307 ft | 503 kts | 215° |
| 2026-05-06 03:04 | 61.63690 | -105.49378 | 40301 ft | 503 kts | 214° |
| 2026-05-06 03:05 | 61.57787 | -105.57278 | 40301 ft | 503 kts | 214° |
| 2026-05-06 03:05 | 61.51875 | -105.65152 | 40300 ft | 503 kts | 214° |
| 2026-05-06 03:06 | 61.45964 | -105.72987 | 40287 ft | 502 kts | 215° |
| 2026-05-06 03:06 | 61.40055 | -105.80787 | 40293 ft | 502 kts | 215° |
| 2026-05-06 03:07 | 61.34142 | -105.88557 | 40289 ft | 502 kts | 215° |
| 2026-05-06 03:07 | 61.28252 | -105.96259 | 40296 ft | 503 kts | 214° |
| 2026-05-06 03:08 | 61.22322 | -106.03981 | 40291 ft | 503 kts | 214° |
| 2026-05-06 03:08 | 61.16372 | -106.11693 | 40288 ft | 503 kts | 214° |
| 2026-05-06 03:09 | 61.10418 | -106.19375 | 40278 ft | 503 kts | 215° |
| 2026-05-06 03:09 | 61.04503 | -106.26973 | 40284 ft | 503 kts | 214° |
| 2026-05-06 03:10 | 60.98541 | -106.34599 | 40282 ft | 504 kts | 214° |
| 2026-05-06 03:10 | 60.92564 | -106.42209 | 40284 ft | 505 kts | 214° |
| 2026-05-06 03:11 | 60.86578 | -106.49796 | 40284 ft | 505 kts | 214° |
| 2026-05-06 03:11 | 60.80587 | -106.57355 | 40283 ft | 506 kts | 214° |
| 2026-05-06 03:12 | 60.74585 | -106.64894 | 40261 ft | 505 kts | 214° |
| 2026-05-06 03:12 | 60.68585 | -106.72398 | 40274 ft | 506 kts | 214° |
| 2026-05-06 03:13 | 60.62616 | -106.79831 | 40278 ft | 506 kts | 214° |
| 2026-05-06 03:13 | 60.56602 | -106.87286 | 40274 ft | 506 kts | 214° |
| 2026-05-06 03:14 | 60.50578 | -106.94721 | 40277 ft | 506 kts | 214° |
| 2026-05-06 03:14 | 60.44544 | -107.02136 | 40275 ft | 506 kts | 214° |
| 2026-05-06 03:15 | 60.38516 | -107.09511 | 40250 ft | 506 kts | 214° |
| 2026-05-06 03:15 | 60.32478 | -107.16864 | 40267 ft | 506 kts | 214° |
| 2026-05-06 03:16 | 60.26481 | -107.24138 | 40277 ft | 506 kts | 214° |
| 2026-05-06 03:16 | 60.20446 | -107.31426 | 40274 ft | 506 kts | 214° |
| 2026-05-06 03:17 | 60.14389 | -107.38708 | 40274 ft | 507 kts | 214° |
| 2026-05-06 03:17 | 60.08328 | -107.45963 | 40268 ft | 507 kts | 214° |
| 2026-05-06 03:18 | 60.02262 | -107.53193 | 40241 ft | 507 kts | 214° |
| 2026-05-06 03:18 | 59.96195 | -107.60393 | 40266 ft | 507 kts | 214° |
| 2026-05-06 03:19 | 59.90131 | -107.67559 | 40270 ft | 507 kts | 214° |
| 2026-05-06 03:19 | 59.84058 | -107.74704 | 40277 ft | 507 kts | 214° |
| 2026-05-06 03:20 | 59.74929 | -107.85388 | 40278 ft | 508 kts | 214° |
| 2026-05-06 03:20 | 59.68871 | -107.92440 | 40274 ft | 508 kts | 213° |
| 2026-05-06 03:21 | 59.62773 | -107.99508 | 40274 ft | 507 kts | 214° |
| 2026-05-06 03:21 | 59.56715 | -108.06501 | 40287 ft | 507 kts | 214° |
| 2026-05-06 03:22 | 59.50603 | -108.13526 | 40285 ft | 507 kts | 213° |
| 2026-05-06 03:22 | 59.44495 | -108.20517 | 40293 ft | 508 kts | 213° |
| 2026-05-06 03:23 | 59.38380 | -108.27487 | 40295 ft | 508 kts | 213° |
| 2026-05-06 03:23 | 59.32255 | -108.34438 | 40245 ft | 509 kts | 214° |
| 2026-05-06 03:24 | 59.26127 | -108.41362 | 40283 ft | 508 kts | 214° |
| 2026-05-06 03:24 | 59.20038 | -108.48214 | 40286 ft | 508 kts | 213° |
| 2026-05-06 03:25 | 59.13902 | -108.55093 | 40283 ft | 509 kts | 213° |
| 2026-05-06 03:25 | 59.07751 | -108.61958 | 40283 ft | 510 kts | 213° |
| 2026-05-06 03:26 | 59.01595 | -108.68800 | 40264 ft | 510 kts | 213° |
| 2026-05-06 03:26 | 58.95422 | -108.75631 | 40268 ft | 511 kts | 213° |
| 2026-05-06 03:27 | 58.89241 | -108.82444 | 40267 ft | 511 kts | 213° |
| 2026-05-06 03:27 | 58.83057 | -108.89231 | 40256 ft | 511 kts | 213° |
| 2026-05-06 03:28 | 58.76905 | -108.95956 | 40273 ft | 511 kts | 213° |
| 2026-05-06 03:28 | 58.70700 | -109.02712 | 40265 ft | 511 kts | 213° |
| 2026-05-06 03:29 | 58.64504 | -109.09428 | 40264 ft | 511 kts | 213° |
| 2026-05-06 03:29 | 58.58334 | -109.16090 | 40245 ft | 510 kts | 213° |
| 2026-05-06 03:30 | 58.52147 | -109.22741 | 40246 ft | 510 kts | 213° |
| 2026-05-06 03:30 | 58.45948 | -109.29380 | 40239 ft | 510 kts | 213° |
| 2026-05-06 03:31 | 58.39753 | -109.35988 | 40244 ft | 510 kts | 213° |
| 2026-05-06 03:31 | 58.33540 | -109.42589 | 40245 ft | 510 kts | 213° |
| 2026-05-06 03:32 | 58.27369 | -109.49116 | 40230 ft | 511 kts | 213° |
| 2026-05-06 03:32 | 58.21156 | -109.55661 | 40224 ft | 510 kts | 213° |
| 2026-05-06 03:33 | 58.14948 | -109.62177 | 40208 ft | 510 kts | 213° |
| 2026-05-06 03:33 | 58.08737 | -109.68669 | 40213 ft | 509 kts | 213° |
| 2026-05-06 03:34 | 58.02523 | -109.75138 | 40205 ft | 510 kts | 213° |
| 2026-05-06 03:34 | 57.96310 | -109.81580 | 40210 ft | 510 kts | 213° |
| 2026-05-06 03:35 | 57.90119 | -109.87974 | 40203 ft | 510 kts | 213° |
| 2026-05-06 03:35 | 57.83901 | -109.94368 | 40199 ft | 509 kts | 213° |
| 2026-05-06 03:36 | 57.77683 | -110.00738 | 40203 ft | 508 kts | 213° |
| 2026-05-06 03:36 | 57.72518 | -110.06011 | 40199 ft | 508 kts | 213° |
| 2026-05-06 03:37 | 57.66312 | -110.12325 | 40200 ft | 508 kts | 213° |
| 2026-05-06 03:37 | 57.60098 | -110.18622 | 40207 ft | 508 kts | 213° |
| 2026-05-06 03:38 | 57.53876 | -110.24902 | 40161 ft | 508 kts | 213° |
| 2026-05-06 03:38 | 57.47669 | -110.31140 | 40198 ft | 506 kts | 213° |
| 2026-05-06 03:39 | 57.41503 | -110.37315 | 40199 ft | 506 kts | 213° |
| 2026-05-06 03:39 | 57.35309 | -110.43494 | 40210 ft | 506 kts | 213° |
| 2026-05-06 03:40 | 57.29125 | -110.49640 | 40204 ft | 506 kts | 213° |
| 2026-05-06 03:40 | 57.22913 | -110.55789 | 40203 ft | 507 kts | 213° |
| 2026-05-06 03:41 | 57.16696 | -110.61920 | 40186 ft | 506 kts | 213° |
| 2026-05-06 03:41 | 57.10479 | -110.68027 | 40201 ft | 506 kts | 213° |
| 2026-05-06 03:42 | 57.04251 | -110.74122 | 40204 ft | 507 kts | 213° |
| 2026-05-06 03:42 | 56.98008 | -110.80208 | 40205 ft | 507 kts | 213° |
| 2026-05-06 03:43 | 56.91770 | -110.86266 | 40198 ft | 508 kts | 213° |
| 2026-05-06 03:43 | 56.85562 | -110.92271 | 40181 ft | 508 kts | 213° |
| 2026-05-06 03:44 | 56.79310 | -110.98298 | 40160 ft | 508 kts | 213° |
| 2026-05-06 03:44 | 56.73043 | -111.04318 | 40149 ft | 510 kts | 213° |
| 2026-05-06 03:45 | 56.66743 | -111.10346 | 40148 ft | 512 kts | 213° |
| 2026-05-06 03:45 | 56.60381 | -111.16231 | 40137 ft | 515 kts | 211° |
| 2026-05-06 03:46 | 56.53875 | -111.21806 | 40152 ft | 517 kts | 210° |
| 2026-05-06 03:46 | 56.47404 | -111.27308 | 40117 ft | 518 kts | 210° |
| 2026-05-06 03:47 | 56.40896 | -111.32892 | 40180 ft | 518 kts | 211° |
| 2026-05-06 03:47 | 56.34371 | -111.38504 | 40198 ft | 520 kts | 211° |
| 2026-05-06 03:48 | 56.27821 | -111.44116 | 40215 ft | 521 kts | 210° |
| 2026-05-06 03:48 | 56.21296 | -111.49677 | 40216 ft | 522 kts | 210° |
| 2026-05-06 03:49 | 56.14721 | -111.55259 | 40206 ft | 522 kts | 210° |
| 2026-05-06 03:49 | 56.08143 | -111.60819 | 40205 ft | 521 kts | 211° |
| 2026-05-06 03:50 | 56.01576 | -111.66358 | 40197 ft | 522 kts | 211° |
| 2026-05-06 03:50 | 55.95000 | -111.71882 | 40211 ft | 523 kts | 210° |
| 2026-05-06 03:51 | 55.88198 | -111.76672 | 40202 ft | 530 kts | 200° |
| 2026-05-06 03:51 | 55.80954 | -111.79418 | 40207 ft | 534 kts | 193° |
| 2026-05-06 03:52 | 55.73670 | -111.81660 | 40214 ft | 535 kts | 193° |
| 2026-05-06 03:52 | 55.66338 | -111.83969 | 40206 ft | 535 kts | 193° |
| 2026-05-06 03:53 | 55.58994 | -111.86335 | 40210 ft | 536 kts | 193° |
| 2026-05-06 03:53 | 55.51645 | -111.88713 | 40205 ft | 537 kts | 193° |
| 2026-05-06 03:54 | 55.44284 | -111.91083 | 40211 ft | 537 kts | 193° |
| 2026-05-06 03:54 | 55.36925 | -111.93440 | 40217 ft | 538 kts | 193° |
| 2026-05-06 03:55 | 55.29603 | -111.95773 | 40207 ft | 538 kts | 193° |
| 2026-05-06 03:55 | 55.22228 | -111.98113 | 40211 ft | 538 kts | 193° |
| 2026-05-06 03:56 | 55.14851 | -112.00446 | 40211 ft | 538 kts | 193° |
| 2026-05-06 03:56 | 55.07473 | -112.02772 | 40217 ft | 538 kts | 193° |
| 2026-05-06 03:57 | 55.00101 | -112.05087 | 40205 ft | 538 kts | 193° |
| 2026-05-06 03:57 | 54.92769 | -112.07380 | 40207 ft | 538 kts | 193° |
| 2026-05-06 03:58 | 54.85396 | -112.09678 | 40207 ft | 538 kts | 193° |
| 2026-05-06 03:58 | 54.78019 | -112.11969 | 40224 ft | 538 kts | 193° |
| 2026-05-06 03:59 | 54.70638 | -112.14252 | 40166 ft | 538 kts | 193° |
| 2026-05-06 03:59 | 54.63262 | -112.16525 | 40208 ft | 538 kts | 193° |
| 2026-05-06 04:00 | 54.55925 | -112.18778 | 40220 ft | 539 kts | 193° |
| 2026-05-06 04:00 | 54.48540 | -112.21038 | 40230 ft | 540 kts | 193° |
| 2026-05-06 04:01 | 54.41129 | -112.23298 | 40228 ft | 541 kts | 193° |
| 2026-05-06 04:01 | 54.33700 | -112.25554 | 40225 ft | 542 kts | 193° |
| 2026-05-06 04:02 | 54.26315 | -112.27788 | 40222 ft | 542 kts | 193° |
| 2026-05-06 04:02 | 54.18883 | -112.30029 | 40205 ft | 542 kts | 193° |
| 2026-05-06 04:03 | 54.11449 | -112.32262 | 40222 ft | 543 kts | 193° |
| 2026-05-06 04:03 | 54.04000 | -112.34492 | 40225 ft | 543 kts | 193° |
| 2026-05-06 04:04 | 53.96542 | -112.36716 | 40223 ft | 544 kts | 193° |
| 2026-05-06 04:04 | 53.89079 | -112.38933 | 40219 ft | 545 kts | 193° |
| 2026-05-06 04:05 | 53.81606 | -112.41145 | 40218 ft | 545 kts | 192° |
| 2026-05-06 04:05 | 53.74134 | -112.43350 | 40221 ft | 545 kts | 192° |
| 2026-05-06 04:06 | 53.66657 | -112.45547 | 40214 ft | 544 kts | 193° |
| 2026-05-06 04:06 | 53.59236 | -112.47721 | 40219 ft | 545 kts | 192° |
| 2026-05-06 04:07 | 53.51765 | -112.49901 | 40226 ft | 545 kts | 192° |
| 2026-05-06 04:07 | 53.44281 | -112.52078 | 40226 ft | 545 kts | 192° |
| 2026-05-06 04:08 | 53.36794 | -112.54247 | 40241 ft | 546 kts | 192° |
| 2026-05-06 04:08 | 53.29298 | -112.56412 | 40228 ft | 546 kts | 192° |
| 2026-05-06 04:09 | 53.21853 | -112.58554 | 40201 ft | 546 kts | 192° |
| 2026-05-06 04:09 | 53.14368 | -112.60699 | 40224 ft | 546 kts | 192° |
| 2026-05-06 04:10 | 53.06879 | -112.62839 | 40237 ft | 546 kts | 192° |
| 2026-05-06 04:10 | 52.99389 | -112.64971 | 40227 ft | 546 kts | 192° |
| 2026-05-06 04:11 | 52.91889 | -112.67098 | 40223 ft | 546 kts | 192° |
| 2026-05-06 04:11 | 52.84393 | -112.69217 | 40229 ft | 547 kts | 192° |
| 2026-05-06 04:12 | 52.76942 | -112.71351 | 40184 ft | 547 kts | 194° |
| 2026-05-06 04:12 | 52.69595 | -112.74437 | 40218 ft | 544 kts | 198° |
| 2026-05-06 04:13 | 52.62292 | -112.77733 | 40226 ft | 544 kts | 198° |
| 2026-05-06 04:13 | 52.54973 | -112.80968 | 40220 ft | 544 kts | 198° |
| 2026-05-06 04:14 | 52.47650 | -112.84153 | 40230 ft | 545 kts | 198° |
| 2026-05-06 04:14 | 52.40318 | -112.87328 | 40223 ft | 545 kts | 198° |
| 2026-05-06 04:15 | 52.33025 | -112.90480 | 40195 ft | 545 kts | 198° |
| 2026-05-06 04:15 | 52.25691 | -112.93644 | 40225 ft | 544 kts | 198° |
| 2026-05-06 04:16 | 52.18369 | -112.96779 | 40222 ft | 545 kts | 197° |
| 2026-05-06 04:16 | 52.11031 | -112.99891 | 40219 ft | 545 kts | 197° |
| 2026-05-06 04:17 | 52.03681 | -113.02998 | 40218 ft | 545 kts | 197° |
| 2026-05-06 04:17 | 51.96335 | -113.06096 | 40214 ft | 545 kts | 197° |
| 2026-05-06 04:18 | 51.89029 | -113.09168 | 40213 ft | 545 kts | 197° |
| 2026-05-06 04:18 | 51.81689 | -113.12245 | 40215 ft | 545 kts | 197° |
| 2026-05-06 04:19 | 51.74345 | -113.15313 | 40218 ft | 545 kts | 197° |
| 2026-05-06 04:19 | 51.67041 | -113.18354 | 40231 ft | 545 kts | 197° |
| 2026-05-06 04:20 | 51.63336 | -113.19891 | 40116 ft | 538 kts | 197° |
| 2026-05-06 04:20 | 51.59782 | -113.21363 | 39873 ft | 532 kts | 197° |
| 2026-05-06 04:20 | 51.52702 | -113.24292 | 39663 ft | 518 kts | 198° |
| 2026-05-06 04:21 | 51.45828 | -113.27223 | 39396 ft | 502 kts | 206° |
| 2026-05-06 04:21 | 51.42825 | -113.29783 | 38828 ft | 478 kts | 227° |
| 2026-05-06 04:21 | 51.40550 | -113.33462 | 37772 ft | 454 kts | 246° |
| 2026-05-06 04:22 | 51.39021 | -113.37719 | 37011 ft | 427 kts | 260° |
| 2026-05-06 04:22 | 51.38114 | -113.42083 | 36387 ft | 401 kts | 271° |
| 2026-05-06 04:22 | 51.37749 | -113.46378 | 35711 ft | 380 kts | 283° |
| 2026-05-06 04:23 | 51.38511 | -113.54264 | 35333 ft | 340 kts | 303° |
| 2026-05-06 04:23 | 51.39466 | -113.57638 | 35040 ft | 326 kts | 312° |
| 2026-05-06 04:23 | 51.40731 | -113.60567 | 34761 ft | 314 kts | 320° |
| 2026-05-06 04:23 | 51.42230 | -113.63032 | 34547 ft | 303 kts | 328° |
| 2026-05-06 04:24 | 51.43862 | -113.64995 | 34331 ft | 295 kts | 335° |
| 2026-05-06 04:24 | 51.45660 | -113.66537 | 34068 ft | 289 kts | 342° |
| 2026-05-06 04:24 | 51.47538 | -113.67599 | 33776 ft | 285 kts | 347° |
| 2026-05-06 04:24 | 51.49452 | -113.68378 | 33502 ft | 283 kts | 350° |
| 2026-05-06 04:25 | 51.51383 | -113.68924 | 33235 ft | 281 kts | 354° |
| 2026-05-06 04:25 | 51.53333 | -113.68983 | 32956 ft | 280 kts | 5° |
| 2026-05-06 04:25 | 51.55192 | -113.68026 | 32625 ft | 289 kts | 25° |
| 2026-05-06 04:25 | 51.56887 | -113.66302 | 32157 ft | 286 kts | 19° |
| 2026-05-06 04:26 | 51.58084 | -113.65413 | 31901 ft | 286 kts | 17° |
| 2026-05-06 04:26 | 51.59904 | -113.64162 | 31683 ft | 283 kts | 17° |
| 2026-05-06 04:26 | 51.61709 | -113.62942 | 31517 ft | 280 kts | 16° |
| 2026-05-06 04:26 | 51.63500 | -113.61738 | 31279 ft | 278 kts | 16° |
| 2026-05-06 04:27 | 51.65286 | -113.60543 | 31029 ft | 278 kts | 16° |
| 2026-05-06 04:27 | 51.67078 | -113.59411 | 30804 ft | 275 kts | 14° |
| 2026-05-06 04:27 | 51.68879 | -113.58393 | 30609 ft | 273 kts | 13° |
| 2026-05-06 04:27 | 51.70674 | -113.57406 | 30372 ft | 272 kts | 13° |
| 2026-05-06 04:28 | 51.72467 | -113.56430 | 30026 ft | 272 kts | 13° |
| 2026-05-06 04:28 | 51.74267 | -113.55459 | 29569 ft | 273 kts | 13° |
| 2026-05-06 04:28 | 51.76049 | -113.54502 | 29143 ft | 272 kts | 13° |
| 2026-05-06 04:28 | 51.77843 | -113.53541 | 28710 ft | 271 kts | 13° |
| 2026-05-06 04:29 | 51.79633 | -113.52585 | 28283 ft | 271 kts | 13° |
| 2026-05-06 04:29 | 51.81405 | -113.51637 | 27810 ft | 264 kts | 13° |
| 2026-05-06 04:29 | 51.83119 | -113.50714 | 27309 ft | 255 kts | 13° |
| 2026-05-06 04:29 | 51.84726 | -113.49523 | 26698 ft | 261 kts | 30° |
| 2026-05-06 04:30 | 51.86015 | -113.47344 | 25918 ft | 275 kts | 43° |
| 2026-05-06 04:30 | 51.87041 | -113.44672 | 25233 ft | 284 kts | 52° |
| 2026-05-06 04:30 | 51.87796 | -113.41668 | 24597 ft | 292 kts | 62° |
| 2026-05-06 04:30 | 51.88166 | -113.38376 | 23983 ft | 306 kts | 76° |
| 2026-05-06 04:31 | 51.87974 | -113.34875 | 23421 ft | 321 kts | 94° |
| 2026-05-06 04:31 | 51.87102 | -113.31470 | 22909 ft | 335 kts | 114° |
| 2026-05-06 04:31 | 51.85565 | -113.28564 | 22344 ft | 348 kts | 134° |
| 2026-05-06 04:31 | 51.83497 | -113.26474 | 21795 ft | 354 kts | 152° |
| 2026-05-06 04:32 | 51.81119 | -113.25294 | 21426 ft | 360 kts | 173° |
| 2026-05-06 04:32 | 51.78638 | -113.25207 | 21215 ft | 354 kts | 182° |
| 2026-05-06 04:32 | 51.76208 | -113.25329 | 21000 ft | 353 kts | 183° |
| 2026-05-06 04:32 | 51.73781 | -113.25690 | 20691 ft | 348 kts | 198° |
| 2026-05-06 04:33 | 51.71586 | -113.27180 | 20356 ft | 340 kts | 215° |
| 2026-05-06 04:33 | 51.69526 | -113.29021 | 20166 ft | 336 kts | 215° |
| 2026-05-06 04:33 | 51.67504 | -113.30836 | 20040 ft | 331 kts | 215° |
| 2026-05-06 04:33 | 51.65486 | -113.32629 | 19702 ft | 334 kts | 214° |
| 2026-05-06 04:34 | 51.63433 | -113.34427 | 19392 ft | 335 kts | 214° |
| 2026-05-06 04:34 | 51.61373 | -113.36208 | 19093 ft | 336 kts | 213° |
| 2026-05-06 04:34 | 51.59303 | -113.37982 | 18828 ft | 336 kts | 213° |
| 2026-05-06 04:34 | 51.57233 | -113.39744 | 18567 ft | 336 kts | 213° |
| 2026-05-06 04:35 | 51.55170 | -113.41493 | 18271 ft | 336 kts | 213° |
| 2026-05-06 04:35 | 51.53128 | -113.43219 | 17972 ft | 336 kts | 213° |
| 2026-05-06 04:35 | 51.51059 | -113.44964 | 17694 ft | 335 kts | 213° |
| 2026-05-06 04:35 | 51.48997 | -113.46701 | 17425 ft | 334 kts | 213° |
| 2026-05-06 04:36 | 51.46936 | -113.48436 | 17130 ft | 334 kts | 213° |
| 2026-05-06 04:36 | 51.44873 | -113.50170 | 16836 ft | 334 kts | 213° |
| 2026-05-06 04:36 | 51.42814 | -113.51901 | 16560 ft | 334 kts | 213° |
| 2026-05-06 04:36 | 51.40756 | -113.53628 | 16270 ft | 333 kts | 213° |
| 2026-05-06 04:37 | 51.38698 | -113.55354 | 15990 ft | 333 kts | 213° |
| 2026-05-06 04:37 | 51.36648 | -113.57071 | 15721 ft | 333 kts | 213° |
| 2026-05-06 04:37 | 51.34560 | -113.58822 | 15618 ft | 340 kts | 213° |
| 2026-05-06 04:37 | 51.32373 | -113.60659 | 15718 ft | 355 kts | 212° |
| 2026-05-06 04:38 | 51.30235 | -113.62432 | 15628 ft | 340 kts | 212° |
| 2026-05-06 04:38 | 51.28178 | -113.64181 | 15129 ft | 326 kts | 217° |
| 2026-05-06 04:38 | 51.26547 | -113.66484 | 14345 ft | 306 kts | 239° |
| 2026-05-06 04:38 | 51.25247 | -113.69092 | 13609 ft | 310 kts | 239° |
| 2026-05-06 04:39 | 51.23849 | -113.71861 | 13400 ft | 318 kts | 238° |
| 2026-05-06 04:39 | 51.22459 | -113.74546 | 12727 ft | 315 kts | 237° |
| 2026-05-06 04:39 | 51.21082 | -113.77159 | 12162 ft | 300 kts | 237° |
| 2026-05-06 04:39 | 51.19733 | -113.79721 | 11029 ft | 302 kts | 236° |
| 2026-05-06 04:40 | 51.18359 | -113.82168 | 10315 ft | 291 kts | 225° |
| 2026-05-06 04:40 | 51.16550 | -113.83532 | 9615 ft | 292 kts | 192° |
| 2026-05-06 04:40 | 51.14552 | -113.83684 | 8866 ft | 283 kts | 181° |
| 2026-05-06 04:40 | 51.12650 | -113.83726 | 8440 ft | 261 kts | 184° |
| 2026-05-06 04:41 | 51.10945 | -113.83921 | 8441 ft | 233 kts | 187° |
| 2026-05-06 04:41 | 51.09365 | -113.84194 | 8476 ft | 229 kts | 189° |
| 2026-05-06 04:41 | 51.07780 | -113.84505 | 8445 ft | 230 kts | 189° |
| 2026-05-06 04:41 | 51.06203 | -113.84828 | 8246 ft | 227 kts | 188° |
| 2026-05-06 04:42 | 51.04661 | -113.84955 | 7911 ft | 224 kts | 181° |
| 2026-05-06 04:42 | 51.03092 | -113.84937 | 7588 ft | 221 kts | 180° |
| 2026-05-06 04:42 | 51.01568 | -113.84913 | 7263 ft | 217 kts | 180° |
| 2026-05-06 04:42 | 51.00066 | -113.84900 | 6958 ft | 213 kts | 180° |
| 2026-05-06 04:43 | 50.98631 | -113.84896 | 6754 ft | 200 kts | 180° |
| 2026-05-06 04:43 | 50.97286 | -113.84898 | 6596 ft | 185 kts | 180° |
| 2026-05-06 04:43 | 50.95995 | -113.84901 | 6545 ft | 186 kts | 180° |
| 2026-05-06 04:43 | 50.94708 | -113.84906 | 6532 ft | 184 kts | 180° |
| 2026-05-06 04:44 | 50.93437 | -113.84911 | 6535 ft | 182 kts | 180° |
| 2026-05-06 04:44 | 50.92167 | -113.84895 | 6538 ft | 182 kts | 178° |
| 2026-05-06 04:44 | 50.90914 | -113.84834 | 6550 ft | 183 kts | 178° |
| 2026-05-06 04:44 | 50.89644 | -113.84765 | 6555 ft | 183 kts | 178° |
| 2026-05-06 04:45 | 50.88373 | -113.84692 | 6565 ft | 183 kts | 178° |
| 2026-05-06 04:45 | 50.87108 | -113.84716 | 6553 ft | 183 kts | 193° |
| 2026-05-06 04:45 | 50.86029 | -113.85991 | 6587 ft | 209 kts | 238° |
| 2026-05-06 04:45 | 50.85806 | -113.88236 | 6569 ft | 212 kts | 283° |
| 2026-05-06 04:46 | 50.86450 | -113.90299 | 6586 ft | 215 kts | 302° |
| 2026-05-06 04:46 | 50.87289 | -113.92282 | 6556 ft | 217 kts | 304° |
| 2026-05-06 04:46 | 50.88123 | -113.94274 | 6550 ft | 216 kts | 303° |
| 2026-05-06 04:46 | 50.88919 | -113.96228 | 6559 ft | 210 kts | 302° |
| 2026-05-06 04:47 | 50.89709 | -113.98196 | 6554 ft | 213 kts | 302° |
| 2026-05-06 04:47 | 50.90511 | -114.00186 | 6540 ft | 212 kts | 305° |
| 2026-05-06 04:47 | 50.91641 | -114.01642 | 6519 ft | 212 kts | 338° |
| 2026-05-06 04:47 | 50.93079 | -114.02030 | 6148 ft | 209 kts | 357° |
| 2026-05-06 04:48 | 50.94529 | -114.02121 | 5481 ft | 207 kts | 0° |
| 2026-05-06 04:48 | 50.95880 | -114.02157 | 5482 ft | 184 kts | 1° |
| 2026-05-06 04:48 | 50.97141 | -114.02153 | 5427 ft | 180 kts | 2° |
| 2026-05-06 04:48 | 50.98362 | -114.02134 | 5460 ft | 175 kts | 2° |
| 2026-05-06 04:49 | 50.99578 | -114.02103 | 5346 ft | 176 kts | 2° |
| 2026-05-06 04:49 | 51.00797 | -114.02107 | 5299 ft | 174 kts | 1° |
| 2026-05-06 04:49 | 51.02027 | -114.02120 | 5053 ft | 180 kts | 1° |
| 2026-05-06 04:49 | 51.03272 | -114.02104 | 4880 ft | 174 kts | 1° |
| 2026-05-06 04:50 | 51.04469 | -114.02163 | 4593 ft | 174 kts | 0° |
| 2026-05-06 04:50 | 51.05647 | -114.02163 | 4473 ft | 164 kts | 3° |
| 2026-05-06 04:50 | 51.06800 | -114.02140 | 4177 ft | 165 kts | 2° |
| 2026-05-06 04:50 | 51.07936 | -114.02134 | 3915 ft | 162 kts | 2° |
| 2026-05-06 04:51 | 51.09042 | -114.02140 | 3718 ft | 155 kts | 2° |
| 2026-05-06 04:51 | 51.10075 | -114.02142 | 3562 ft | 141 kts | 3° |
| 2026-05-06 04:51 | 51.10919 | -114.02147 | 3558 ft | 99 kts | 360° |
| 2026-05-06 04:51 | 51.11354 | -114.02136 | 3558 ft | 26 kts | 1° |
| 2026-05-06 04:52 | 51.11569 | -114.02102 | 3554 ft | 26 kts | 21° |
| 2026-05-06 04:52 | 51.11632 | -114.02050 | 3558 ft | 3 kts | 31° |
| 2026-05-06 04:52 | 51.11700 | -114.01985 | 3559 ft | 13 kts | 31° |
| 2026-05-06 04:52 | 51.11755 | -114.01873 | 3562 ft | 13 kts | 66° |
| 2026-05-06 04:53 | 51.11830 | -114.01800 | 3559 ft | 14 kts | 7° |
| 2026-05-06 04:53 | 51.11925 | -114.01797 | 3562 ft | 14 kts | 359° |
| 2026-05-06 04:53 | 51.12041 | -114.01798 | 3559 ft | 25 kts | 360° |
| 2026-05-06 04:53 | 51.12229 | -114.01795 | 3562 ft | 27 kts | 1° |
| 2026-05-06 04:54 | 51.12413 | -114.01793 | 3562 ft | 26 kts | 0° |
| 2026-05-06 04:54 | 51.12591 | -114.01794 | 3562 ft | 26 kts | 358° |
| 2026-05-06 04:54 | 51.12770 | -114.01796 | 3564 ft | 25 kts | 0° |
| 2026-05-06 04:54 | 51.12889 | -114.01740 | 3556 ft | 16 kts | 56° |
| 2026-05-06 04:55 | 51.12893 | -114.01561 | 3561 ft | 16 kts | 95° |
| 2026-05-06 04:55 | 51.12835 | -114.01407 | 3558 ft | 16 kts | 129° |
| 2026-05-06 04:55 | 51.12781 | -114.01254 | 3562 ft | 16 kts | 88° |
| 2026-05-06 04:55 | 51.12801 | -114.01083 | 3560 ft | 16 kts | 112° |
| 2026-05-06 04:56 | 51.12754 | -114.00921 | 3560 ft | 16 kts | 102° |
| 2026-05-06 04:56 | 51.12744 | -114.00741 | 3564 ft | 16 kts | 94° |
| 2026-05-06 04:56 | 51.12753 | -114.00675 | 3562 ft | 2 kts | 56° |
| 2026-05-06 04:57 | 51.12767 | -114.00656 | 3564 ft | 12 kts | 32° |
| 2026-05-06 04:57 | 51.12864 | -114.00634 | 3561 ft | 15 kts | 17° |
| 2026-05-06 04:57 | 51.12907 | -114.00586 | 3558 ft | 0 kts | 47° |
| 2026-05-06 04:58 | 51.12912 | -114.00575 | 3560 ft | 4 kts | 52° |
| 2026-05-06 04:58 | 51.12926 | -114.00545 | 3560 ft | 0 kts | 53° |